Time;durP1;ratioP1;P1;durP2;ratioP2;P2;SDS_P1;SDS_P2;PMS_P1;PMS_P2;Temp;Humidity;BMP_temperature;BMP_pressure;BME280_temperature;BME280_humidity;BME280_pressure;Samples;Min_cycle;Max_cycle;Signal;HPM_P1;HPM_P2
2022/12/27 00:01:55;;;;;;;16.50;2.10;;;3.90;98.80;;;;;;4934192;29;20190;-52
2022/12/27 00:04:21;;;;;;;5.57;2.27;;;3.90;43.40;;;;;;4933089;29;20288;-52
2022/12/27 00:06:46;;;;;;;10.00;2.67;;;3.90;1.00;;;;;;4933636;29;20672;-52
2022/12/27 00:09:12;;;;;;;14.43;2.53;;;3.90;1.00;;;;;;4934167;29;20198;-53
2022/12/27 00:11:38;;;;;;;12.90;2.40;;;3.90;1.00;;;;;;4931411;29;20281;-52
2022/12/27 00:14:05;;;;;;;8.70;2.60;;;3.90;1.00;;;;;;4920225;29;20289;-53
2022/12/27 00:16:32;;;;;;;23.60;2.67;;;3.90;1.00;;;;;;4927765;29;20434;-53
2022/12/27 00:18:58;;;;;;;7.70;2.40;;;3.90;1.00;;;;;;4918284;29;20526;-53
2022/12/27 00:21:24;;;;;;;6.53;2.37;;;3.90;1.00;;;;;;4928022;29;20445;-53
2022/12/27 00:23:53;;;;;;;8.97;2.10;;;3.90;1.00;;;;;;4932837;29;20438;-54
2022/12/27 00:26:38;;;;;;;10.17;2.33;;;3.80;1.00;;;;;;4929442;29;20971;-53
2022/12/27 00:29:03;;;;;;;7.00;2.10;;;3.80;1.00;;;;;;4933092;29;20916;-52
2022/12/27 00:31:31;;;;;;;9.43;2.60;;;3.80;1.00;;;;;;4929054;29;20454;-52
2022/12/27 00:33:59;;;;;;;12.03;2.53;;;3.80;1.00;;;;;;4933871;29;20206;-53
2022/12/27 00:36:27;;;;;;;12.07;2.70;;;3.80;1.00;;;;;;4932122;29;20449;-53
2022/12/27 00:38:53;;;;;;;12.00;2.50;;;3.80;1.00;;;;;;4931197;29;20505;-53
2022/12/27 00:41:19;;;;;;;11.80;2.60;;;3.80;1.00;;;;;;4932328;29;20828;-53
2022/12/27 00:43:45;;;;;;;11.60;2.70;;;3.80;1.00;;;;;;4933396;29;20427;-53
2022/12/27 00:46:11;;;;;;;9.07;1.97;;;3.80;1.00;;;;;;4925230;29;20509;-52
2022/12/27 00:48:37;;;;;;;11.13;2.10;;;3.70;1.00;;;;;;4933655;29;20461;-52
2022/12/27 00:51:15;;;;;;;15.53;2.80;;;3.70;1.00;;;;;;4929154;29;20202;-53
2022/12/27 00:53:41;;;;;;;8.10;2.90;;;3.60;1.00;;;;;;4932837;29;20183;-53
2022/12/27 00:56:09;;;;;;;9.13;2.77;;;3.60;1.00;;;;;;4931440;29;20450;-52
2022/12/27 00:58:36;;;;;;;12.10;2.73;;;3.60;1.00;;;;;;4935135;29;20443;-57
2022/12/27 01:01:10;;;;;;;12.27;2.53;;;3.70;1.00;;;;;;4928275;29;20478;-56
2022/12/27 01:03:36;;;;;;;6.47;2.40;;;3.70;1.00;;;;;;4929632;29;20442;-53
2022/12/27 01:06:06;;;;;;;11.97;2.83;;;3.70;1.00;;;;;;4937271;29;20430;-52
2022/12/27 01:08:32;;;;;;;9.10;2.20;;;3.70;1.00;;;;;;4937596;29;20546;-52
2022/12/27 01:10:58;;;;;;;14.87;2.80;;;3.60;99.90;;;;;;4936003;29;20454;-53
2022/12/27 01:13:23;;;;;;;11.30;2.37;;;3.70;99.90;;;;;;4937557;29;20190;-52
2022/12/27 01:15:49;;;;;;;13.63;3.00;;;3.60;99.90;;;;;;4925175;29;20793;-53
2022/12/27 01:18:15;;;;;;;9.43;2.93;;;3.70;99.90;;;;;;4926189;29;20625;-52
2022/12/27 01:20:40;;;;;;;8.33;2.90;;;3.60;99.90;;;;;;4927388;29;20685;-53
2022/12/27 01:23:06;;;;;;;9.90;2.43;;;3.60;99.90;;;;;;4937025;29;20648;-53
2022/12/27 01:25:31;;;;;;;15.43;3.40;;;3.60;99.90;;;;;;4936532;29;20209;-52
2022/12/27 01:27:57;;;;;;;8.53;2.80;;;3.60;99.90;;;;;;4937355;29;20182;-52
2022/12/27 01:30:22;;;;;;;11.53;2.80;;;3.60;99.90;;;;;;4936292;29;20198;-52
2022/12/27 01:32:48;;;;;;;8.07;2.93;;;3.50;1.00;;;;;;4936838;29;20174;-53
2022/12/27 01:35:14;;;;;;;18.27;3.20;;;3.50;1.00;;;;;;4936066;29;20202;-53
2022/12/27 01:37:39;;;;;;;9.87;2.90;;;3.40;1.00;;;;;;4931771;29;20197;-53
2022/12/27 01:40:05;;;;;;;12.50;3.10;;;3.40;1.00;;;;;;4935746;29;20214;-52
2022/12/27 01:45:18;;;;;;;14.53;3.40;;;3.30;52.90;;;;;;4920872;29;20442;-52
2022/12/27 01:47:55;;;;;;;12.30;3.20;;;3.30;99.90;;;;;;4927943;29;20442;-52
2022/12/27 01:50:46;;;;;;;4.57;2.60;;;3.20;99.90;;;;;;4922470;29;20489;-53
2022/12/27 01:53:18;;;;;;;11.70;3.47;;;3.20;99.90;;;;;;4930333;29;20446;-53
2022/12/27 01:55:59;;;;;;;7.13;2.63;;;3.30;99.90;;;;;;4930565;29;20461;-53
2022/12/27 01:58:40;;;;;;;11.77;3.33;;;3.30;99.90;;;;;;4924024;29;20777;-52
2022/12/27 02:01:11;;;;;;;14.33;3.23;;;3.30;99.90;;;;;;4928227;29;20819;-53
2022/12/27 02:03:47;;;;;;;5.70;2.73;;;3.20;99.90;;;;;;4933067;29;20450;-53
2022/12/27 02:06:14;;;;;;;11.07;3.00;;;3.30;99.90;;;;;;4928655;29;20489;-53
2022/12/27 02:09:04;;;;;;;12.20;2.90;;;3.30;99.90;;;;;;4936476;29;20442;-53
2022/12/27 02:11:50;;;;;;;9.70;3.30;;;3.30;99.90;;;;;;4931567;29;20439;-52
2022/12/27 02:14:28;;;;;;;17.97;2.90;;;3.20;99.90;;;;;;4917466;29;20529;-52
2022/12/27 02:16:55;;;;;;;9.13;3.30;;;3.20;99.90;;;;;;4926138;29;20419;-52
2022/12/27 02:19:29;;;;;;;9.03;2.80;;;3.20;99.90;;;;;;4916847;29;20463;-53
2022/12/27 02:22:31;;;;;;;11.20;3.03;;;3.30;99.90;;;;;;4899828;29;20451;-52
2022/12/27 02:25:17;;;;;;;7.83;2.80;;;3.30;99.90;;;;;;4928981;29;20441;-53
2022/12/27 02:27:59;;;;;;;9.40;3.33;;;3.20;99.90;;;;;;4926370;29;20975;-53
2022/12/27 02:30:25;;;;;;;12.70;2.80;;;3.30;99.90;;;;;;4923967;29;20541;-53
2022/12/27 02:33:16;;;;;;;4.20;2.60;;;3.20;99.90;;;;;;4926174;29;20449;-58
2022/12/27 02:35:56;;;;;;;10.00;3.03;;;3.20;99.90;;;;;;4921290;29;20470;-53
2022/12/27 02:38:27;;;;;;;9.80;3.10;;;3.20;99.90;;;;;;4928784;29;20773;-52
2022/12/27 02:55:30;;;;;;;9.07;3.13;;;3.20;99.90;;;;;;4935442;29;20429;-53
2022/12/27 02:58:12;;;;;;;9.80;2.73;;;3.20;99.90;;;;;;4935739;29;20399;-56
2022/12/27 03:04:03;;;;;;;14.23;3.80;;;3.20;99.90;;;;;;4929576;29;20449;-53
2022/12/27 03:06:53;;;;;;;12.70;2.93;;;3.20;1.00;;;;;;4933698;29;20445;-53
2022/12/27 03:15:53;;;;;;;16.47;3.40;;;3.10;1.00;;;;;;4924218;29;20421;-53
2022/12/27 03:18:45;;;;;;;7.83;3.47;;;3.10;1.00;;;;;;4923631;29;20482;-53
2022/12/27 03:26:50;;;;;;;10.67;3.60;;;3.10;1.00;;;;;;4926392;29;20811;-52
2022/12/27 03:35:00;;;;;;;13.23;3.17;;;3.20;1.00;;;;;;4922849;29;20442;-52
2022/12/27 03:43:40;;;;;;;10.97;3.10;;;3.40;1.00;;;;;;4920936;29;20470;-53
2022/12/27 03:46:32;;;;;;;9.03;3.57;;;3.40;1.00;;;;;;4932011;29;20501;-53
2022/12/27 03:49:05;;;;;;;13.20;3.40;;;3.40;1.00;;;;;;4934648;29;20508;-52
2022/12/27 03:51:43;;;;;;;10.53;4.23;;;3.30;1.00;;;;;;4932858;29;20951;-52
2022/12/27 03:54:25;;;;;;;12.20;4.30;;;3.30;1.00;;;;;;4932753;29;20440;-51
2022/12/27 03:56:55;;;;;;;10.60;3.30;;;3.40;1.00;;;;;;4925428;29;20775;-52
2022/12/27 03:59:20;;;;;;;10.40;4.10;;;3.40;1.00;;;;;;4927613;29;20521;-51
2022/12/27 04:01:46;;;;;;;14.00;3.83;;;3.40;1.00;;;;;;4923569;29;20536;-54
2022/12/27 04:04:12;;;;;;;14.10;4.10;;;3.40;1.00;;;;;;4926815;29;20194;-51
2022/12/27 04:06:37;;;;;;;6.87;3.40;;;3.50;1.00;;;;;;4927229;29;20194;-52
2022/12/27 04:36:25;;;;;;;10.83;4.10;;;3.60;1.00;;;;;;4926697;29;20858;-52
2022/12/27 04:38:50;;;;;;;10.70;4.07;;;3.60;1.00;;;;;;4931981;29;20450;-56
2022/12/27 04:55:20;;;;;;;15.40;4.50;;;3.90;1.00;;;;;;4924693;29;20541;-53
2022/12/27 04:57:46;;;;;;;11.60;5.40;;;3.80;1.00;;;;;;4932746;29;20474;-53
2022/12/27 05:02:58;;;;;;;16.13;5.10;;;4.00;1.00;;;;;;4931452;29;20194;-55
2022/12/27 05:05:24;;;;;;;11.43;4.87;;;4.00;1.00;;;;;;4926465;29;20446;-53
2022/12/27 05:16:03;;;;;;;11.80;4.70;;;3.90;99.90;;;;;;4933299;29;20405;-54
2022/12/27 05:18:29;;;;;;;9.57;4.47;;;3.90;99.90;;;;;;4933037;29;20988;-53
2022/12/27 05:20:54;;;;;;;9.53;4.47;;;3.90;99.90;;;;;;4934257;29;20454;-52
2022/12/27 05:26:04;;;;;;;17.07;4.63;;;3.90;99.90;;;;;;4922640;29;20278;-53
2022/12/27 05:28:30;;;;;;;11.90;4.47;;;3.90;99.90;;;;;;4924506;29;20545;-52
2022/12/27 05:31:00;;;;;;;14.33;4.33;;;3.90;99.90;;;;;;4933716;29;20644;-52
2022/12/27 05:33:26;;;;;;;10.77;4.50;;;3.90;99.90;;;;;;4928620;29;20194;-52
2022/12/27 05:35:51;;;;;;;7.03;4.20;;;3.80;99.90;;;;;;4915242;29;20427;-53
2022/12/27 05:38:17;;;;;;;14.20;4.87;;;3.80;99.90;;;;;;4921178;29;20218;-53
2022/12/27 05:40:43;;;;;;;8.57;4.20;;;3.80;99.90;;;;;;4925844;29;20214;-53
2022/12/27 05:43:08;;;;;;;7.53;3.90;;;3.70;99.90;;;;;;4934890;29;20170;-53
2022/12/27 05:45:34;;;;;;;8.80;4.50;;;3.80;99.90;;;;;;4917952;29;20214;-52
2022/12/27 05:47:59;;;;;;;11.43;4.30;;;3.70;99.90;;;;;;4901109;29;20191;-52
2022/12/27 05:50:25;;;;;;;13.23;4.33;;;3.70;99.90;;;;;;4922428;29;20338;-52
2022/12/27 05:52:51;;;;;;;14.93;5.03;;;3.80;99.90;;;;;;4935703;29;20656;-52
2022/12/27 05:55:17;;;;;;;12.57;4.30;;;3.70;99.90;;;;;;4936727;29;20414;-57
2022/12/27 05:57:42;;;;;;;9.13;4.40;;;3.80;99.90;;;;;;4936498;29;20237;-56
2022/12/27 06:00:10;;;;;;;14.93;4.40;;;3.80;99.90;;;;;;4933351;29;20221;-52
2022/12/27 06:02:36;;;;;;;12.53;4.17;;;3.80;99.90;;;;;;4937813;29;20210;-52
2022/12/27 06:05:01;;;;;;;11.00;4.40;;;3.80;99.90;;;;;;4937751;29;20509;-52
2022/12/27 06:07:27;;;;;;;14.17;3.90;;;3.80;99.90;;;;;;4931800;29;20183;-52
2022/12/27 06:09:52;;;;;;;14.90;4.87;;;3.90;99.90;;;;;;4928904;29;20266;-54
2022/12/27 06:12:18;;;;;;;13.67;4.73;;;3.90;99.90;;;;;;4925555;29;20539;-52
2022/12/27 06:14:43;;;;;;;11.97;4.27;;;3.90;99.90;;;;;;4928254;29;20242;-52
2022/12/27 06:17:09;;;;;;;13.93;5.17;;;3.90;99.90;;;;;;4933041;29;20194;-52
2022/12/27 06:19:35;;;;;;;17.63;5.07;;;3.90;99.90;;;;;;4921460;29;20289;-56
2022/12/27 06:22:00;;;;;;;11.00;4.80;;;3.90;99.90;;;;;;4929849;29;20193;-53
2022/12/27 06:24:26;;;;;;;10.83;3.63;;;3.90;99.90;;;;;;4931375;29;20183;-52
2022/12/27 06:26:51;;;;;;;11.10;4.20;;;3.90;99.90;;;;;;4921489;29;20194;-55
2022/12/27 06:29:17;;;;;;;7.77;4.00;;;3.90;99.90;;;;;;4936396;29;20194;-53
2022/12/27 06:31:43;;;;;;;11.60;4.70;;;4.00;99.90;;;;;;4918987;29;20274;-52
2022/12/27 06:34:09;;;;;;;19.63;4.27;;;4.00;99.90;;;;;;4929875;29;20256;-52
2022/12/27 06:36:35;;;;;;;9.63;3.77;;;4.00;99.90;;;;;;4934663;29;20235;-52
2022/12/27 06:39:01;;;;;;;14.57;4.17;;;3.90;99.90;;;;;;4933878;29;20537;-53
2022/12/27 06:41:26;;;;;;;15.77;4.80;;;4.00;99.90;;;;;;4931188;29;20349;-53
2022/12/27 06:43:55;;;;;;;9.70;4.47;;;4.00;99.90;;;;;;4921025;29;20211;-52
2022/12/27 06:46:23;;;;;;;12.40;3.77;;;4.00;99.90;;;;;;4920138;29;20191;-53
2022/12/27 06:48:48;;;;;;;12.77;3.73;;;4.00;99.90;;;;;;4925003;29;20527;-55
2022/12/27 06:51:16;;;;;;;11.13;4.00;;;4.00;99.90;;;;;;4917132;29;20495;-52
2022/12/27 06:53:42;;;;;;;13.37;4.80;;;3.90;99.90;;;;;;4916712;29;20187;-52
2022/12/27 06:56:22;;;;;;;13.53;4.70;;;3.90;99.90;;;;;;4916900;29;20871;-52
2022/12/27 06:58:49;;;;;;;13.37;3.67;;;3.90;99.90;;;;;;4919573;29;20625;-52
2022/12/27 07:01:18;;;;;;;16.27;4.20;;;3.90;99.90;;;;;;4926175;29;20486;-52
2022/12/27 07:03:58;;;;;;;6.17;3.40;;;4.00;99.90;;;;;;4921286;29;20443;-52
2022/12/27 07:06:26;;;;;;;8.13;3.83;;;4.00;99.90;;;;;;4920263;29;20442;-52
2022/12/27 07:08:52;;;;;;;14.10;4.27;;;4.00;99.90;;;;;;4916326;29;20426;-52
2022/12/27 07:11:19;;;;;;;7.43;3.57;;;3.90;99.90;;;;;;4911851;29;20434;-52
2022/12/27 07:13:50;;;;;;;9.13;3.40;;;3.90;99.90;;;;;;4923110;29;20450;-56
2022/12/27 07:16:18;;;;;;;9.50;3.60;;;3.90;99.90;;;;;;4928872;29;20796;-52
2022/12/27 07:18:44;;;;;;;8.23;4.23;;;3.90;99.90;;;;;;4917983;29;20439;-52
2022/12/27 07:21:13;;;;;;;10.87;3.87;;;3.90;99.90;;;;;;4929356;29;20458;-52
2022/12/27 07:23:39;;;;;;;15.23;4.03;;;3.90;99.90;;;;;;4923133;29;20187;-52
2022/12/27 07:26:07;;;;;;;8.50;3.50;;;4.00;99.90;;;;;;4916241;29;20414;-52
2022/12/27 07:28:33;;;;;;;12.83;5.60;;;3.90;99.90;;;;;;4916152;29;20171;-56
2022/12/27 07:30:58;;;;;;;11.10;4.67;;;4.00;99.90;;;;;;4926301;29;20445;-52
2022/12/27 07:33:24;;;;;;;12.03;3.60;;;3.90;99.90;;;;;;4934152;29;20430;-52
2022/12/27 07:35:58;;;;;;;9.47;4.03;;;4.00;99.90;;;;;;4916839;29;20545;-52
2022/12/27 07:38:23;;;;;;;10.70;4.50;;;4.00;99.90;;;;;;4934680;29;20325;-52
2022/12/27 07:40:49;;;;;;;11.30;4.33;;;3.90;99.90;;;;;;4929714;29;20580;-52
2022/12/27 07:43:15;;;;;;;9.13;4.10;;;3.90;99.90;;;;;;4925384;29;20187;-53
2022/12/27 07:45:41;;;;;;;18.83;4.20;;;3.90;99.90;;;;;;4930291;29;20209;-52
2022/12/27 07:48:06;;;;;;;10.93;4.53;;;3.90;99.90;;;;;;4932743;29;20454;-52
2022/12/27 07:50:32;;;;;;;12.60;4.17;;;3.90;99.90;;;;;;4930537;29;20271;-52
2022/12/27 07:52:57;;;;;;;9.70;4.07;;;4.00;99.90;;;;;;4926689;29;20238;-52
2022/12/27 07:55:23;;;;;;;10.90;4.17;;;3.90;99.90;;;;;;4916120;29;20186;-52
2022/12/27 07:57:49;;;;;;;15.17;4.23;;;3.90;99.90;;;;;;4918104;29;20194;-52
2022/12/27 08:00:14;;;;;;;15.73;4.23;;;3.90;99.90;;;;;;4930493;29;20237;-52
2022/12/27 08:02:42;;;;;;;9.27;3.27;;;3.80;99.90;;;;;;4917259;29;20190;-52
2022/12/27 08:05:08;;;;;;;13.30;4.03;;;3.80;99.90;;;;;;4915803;29;20193;-52
2022/12/27 08:07:33;;;;;;;15.53;4.30;;;3.80;99.90;;;;;;4932949;29;20439;-52
2022/12/27 08:09:59;;;;;;;6.43;3.43;;;3.80;99.90;;;;;;4913601;29;20200;-52
2022/12/27 08:12:24;;;;;;;8.03;3.37;;;3.80;99.90;;;;;;4924308;29;20337;-52
2022/12/27 08:14:50;;;;;;;9.90;3.80;;;3.80;99.90;;;;;;4925495;29;20205;-52
2022/12/27 08:17:22;;;;;;;9.90;3.40;;;3.80;99.90;;;;;;4926450;29;20223;-52
2022/12/27 08:19:50;;;;;;;11.03;3.80;;;3.80;99.90;;;;;;4933935;29;20750;-52
2022/12/27 08:22:16;;;;;;;10.73;2.90;;;3.80;99.90;;;;;;4930518;29;20476;-52
2022/12/27 08:24:42;;;;;;;6.10;3.33;;;3.80;99.90;;;;;;4930940;29;20549;-52
2022/12/27 08:27:09;;;;;;;12.73;4.13;;;3.80;99.90;;;;;;4921430;29;20190;-53
2022/12/27 08:29:35;;;;;;;9.30;4.07;;;3.90;99.90;;;;;;4925393;29;20442;-52
2022/12/27 08:32:00;;;;;;;7.80;3.67;;;3.90;99.90;;;;;;4919405;29;20477;-52
2022/12/27 08:34:26;;;;;;;13.33;4.10;;;4.00;99.90;;;;;;4928141;29;20204;-52
2022/12/27 08:36:52;;;;;;;11.07;3.20;;;4.00;99.90;;;;;;4919366;29;20556;-52
2022/12/27 08:39:18;;;;;;;10.70;3.50;;;4.00;99.90;;;;;;4916542;29;20194;-52
2022/12/27 08:41:44;;;;;;;15.23;3.70;;;4.00;99.90;;;;;;4920298;29;20453;-52
2022/12/27 08:44:10;;;;;;;11.33;3.67;;;4.00;99.90;;;;;;4905597;29;20455;-54
2022/12/27 08:46:36;;;;;;;6.50;3.20;;;4.10;99.90;;;;;;4931215;29;20197;-53
2022/12/27 08:49:03;;;;;;;10.03;4.10;;;4.10;99.90;;;;;;4928641;29;20475;-53
2022/12/27 08:51:29;;;;;;;7.47;3.47;;;4.00;99.90;;;;;;4927772;29;20917;-52
2022/12/27 08:53:55;;;;;;;13.40;3.60;;;4.10;99.90;;;;;;4930035;29;20442;-53
2022/12/27 08:56:21;;;;;;;10.10;3.73;;;4.10;99.90;;;;;;4928222;29;20879;-53
2022/12/27 08:58:50;;;;;;;14.10;3.90;;;4.20;99.90;;;;;;4931959;29;20442;-53
2022/12/27 09:01:16;;;;;;;15.10;3.83;;;4.30;99.90;;;;;;4932433;29;20217;-53
2022/12/27 09:03:42;;;;;;;8.03;3.60;;;4.40;99.90;;;;;;4930200;29;20446;-53
2022/12/27 09:06:09;;;;;;;8.60;3.20;;;4.40;99.90;;;;;;4929925;29;20445;-53
2022/12/27 09:08:35;;;;;;;10.77;4.23;;;4.40;99.90;;;;;;4920524;29;20198;-54
2022/12/27 09:11:12;;;;;;;20.10;4.43;;;4.50;99.90;;;;;;4922933;29;20442;-53
2022/12/27 09:13:38;;;;;;;13.80;4.00;;;4.40;99.90;;;;;;4935492;29;20703;-54
2022/12/27 09:16:09;;;;;;;6.87;3.57;;;4.50;99.90;;;;;;4936466;29;20486;-53
2022/12/27 09:18:38;;;;;;;14.40;4.13;;;4.40;99.90;;;;;;4934193;29;20460;-53
2022/12/27 09:21:15;;;;;;;16.17;3.67;;;4.40;99.90;;;;;;4923609;29;20489;-53
2022/12/27 09:23:42;;;;;;;15.67;3.60;;;4.40;99.90;;;;;;4926231;29;20927;-53
2022/12/27 09:26:18;;;;;;;13.40;4.13;;;4.40;99.90;;;;;;4951659;29;20883;-53
2022/12/27 09:28:44;;;;;;;12.33;3.27;;;4.40;99.90;;;;;;4924820;29;20445;-54
2022/12/27 09:31:11;;;;;;;11.40;3.47;;;4.50;99.90;;;;;;4956266;29;20413;-54
2022/12/27 09:33:36;;;;;;;14.83;4.13;;;4.50;64.30;;;;;;4939813;29;20444;-54
2022/12/27 09:36:31;;;;;;;10.03;3.50;;;4.50;90.70;;;;;;4935878;29;20441;-55
2022/12/27 09:38:57;;;;;;;10.67;3.10;;;4.60;57.40;;;;;;4923815;29;20262;-54
2022/12/27 09:41:47;;;;;;;10.47;3.20;;;4.70;28.50;;;;;;4944040;29;20477;-54
2022/12/27 09:44:27;;;;;;;5.33;3.70;;;4.80;1.00;;;;;;4933260;29;20961;-54
2022/12/27 09:47:17;;;;;;;7.53;3.03;;;4.80;1.00;;;;;;4908666;29;20458;-54
2022/12/27 09:49:59;;;;;;;10.63;3.23;;;4.90;1.00;;;;;;4924282;29;20485;-54
2022/12/27 09:52:54;;;;;;;10.83;3.10;;;4.90;1.00;;;;;;4931754;29;20807;-53
2022/12/27 09:55:30;;;;;;;13.33;3.47;;;4.90;99.90;;;;;;4925174;29;20486;-51
2022/12/27 09:58:17;;;;;;;8.10;3.20;;;4.90;99.90;;;;;;4937050;29;20444;-52
2022/12/27 10:00:44;;;;;;;8.47;3.10;;;5.00;99.90;;;;;;4932303;29;20839;-52
2022/12/27 10:03:11;;;;;;;9.40;3.10;;;5.00;99.90;;;;;;4925462;29;20466;-53
2022/12/27 10:05:38;;;;;;;20.97;3.17;;;5.00;99.90;;;;;;4932556;29;20486;-52
2022/12/27 10:08:17;;;;;;;10.03;3.10;;;5.00;99.90;;;;;;4928159;29;20446;-52
2022/12/27 10:10:52;;;;;;;11.27;3.47;;;5.00;99.90;;;;;;4927675;29;20446;-52
2022/12/27 10:13:36;;;;;;;10.13;3.10;;;5.00;99.90;;;;;;4934703;29;20445;-52
2022/12/27 10:16:27;;;;;;;9.57;3.07;;;5.10;1.00;;;;;;4933194;29;20600;-52
2022/12/27 10:19:04;;;;;;;6.67;3.10;;;5.10;1.00;;;;;;4935391;29;20682;-54
2022/12/27 10:21:34;;;;;;;7.43;3.27;;;5.20;1.00;;;;;;4928707;29;20472;-53
2022/12/27 10:24:18;;;;;;;10.63;3.30;;;5.30;1.00;;;;;;4934385;29;20461;-54
2022/12/27 10:26:44;;;;;;;11.57;2.80;;;5.40;99.90;;;;;;4933065;29;20905;-53
2022/12/27 10:29:25;;;;;;;9.03;2.57;;;5.50;99.90;;;;;;4926590;29;20445;-54
2022/12/27 10:31:51;;;;;;;6.63;2.60;;;5.70;1.00;;;;;;4933301;29;20230;-53
2022/12/27 10:34:23;;;;;;;13.37;3.70;;;5.80;1.00;;;;;;4928725;29;20435;-53
2022/12/27 10:36:50;;;;;;;8.47;2.37;;;6.10;62.30;;;;;;4931406;29;20520;-53
2022/12/27 10:39:18;;;;;;;11.30;3.13;;;6.80;1.00;;;;;;4935324;29;20433;-53
2022/12/27 10:42:01;;;;;;;8.80;2.53;;;7.70;1.00;;;;;;4935092;29;20485;-53
2022/12/27 10:44:28;;;;;;;12.83;2.33;;;8.30;99.90;;;;;;4934915;29;20430;-53
2022/12/27 10:46:55;;;;;;;4.53;2.23;;;8.60;99.90;;;;;;4935075;29;20939;-53
2022/12/27 10:49:30;;;;;;;9.80;2.67;;;8.60;89.20;;;;;;4936115;29;20470;-53
2022/12/27 10:52:08;;;;;;;8.90;2.53;;;8.40;97.80;;;;;;4936023;29;20493;-53
2022/12/27 10:54:34;;;;;;;10.33;2.50;;;8.30;44.10;;;;;;4935978;29;20402;-53
2022/12/27 10:57:27;;;;;;;9.17;4.00;;;8.30;1.00;;;;;;4935806;29;20399;-53
2022/12/27 11:00:21;;;;;;;8.00;2.13;;;8.10;99.90;;;;;;4935229;29;20458;-53
2022/12/27 11:02:55;;;;;;;6.23;2.00;;;9.20;1.00;;;;;;4932379;29;20959;-54
2022/12/27 11:05:23;;;;;;;6.87;2.20;;;10.50;99.90;;;;;;4935528;29;20473;-56
2022/12/27 11:07:49;;;;;;;12.90;2.20;;;11.40;29.50;;;;;;4928496;29;20446;-54
2022/12/27 11:10:18;;;;;;;12.70;2.60;;;12.00;1.00;;;;;;4927251;29;20442;-53
2022/12/27 11:13:17;;;;;;;7.80;2.10;;;11.60;1.00;;;;;;4934927;29;20197;-54
2022/12/27 11:15:52;;;;;;;9.77;3.17;;;11.40;1.00;;;;;;4930673;29;20441;-54
2022/12/27 11:18:19;;;;;;;5.73;2.17;;;10.90;1.00;;;;;;4917610;29;20533;-53
2022/12/27 11:20:50;;;;;;;12.70;2.67;;;10.70;1.00;;;;;;4907130;29;20920;-53
2022/12/27 11:23:18;;;;;;;6.87;2.13;;;10.40;1.00;;;;;;4916133;29;20411;-53
2022/12/27 11:26:01;;;;;;;8.87;2.50;;;9.80;1.00;;;;;;4922589;29;20438;-53
2022/12/27 11:28:30;;;;;;;9.77;2.73;;;9.40;1.00;;;;;;4925111;29;20469;-53
2022/12/27 11:31:17;;;;;;;8.30;2.30;;;9.30;1.00;;;;;;4926317;29;20495;-53
2022/12/27 11:33:50;;;;;;;11.50;2.80;;;9.30;1.00;;;;;;4925330;29;20912;-53
2022/12/27 11:36:28;;;;;;;6.87;2.20;;;9.30;1.00;;;;;;4933236;29;20430;-53
2022/12/27 11:38:53;;;;;;;7.80;2.27;;;8.90;1.00;;;;;;4933876;29;20518;-53
2022/12/27 11:41:24;;;;;;;8.50;2.33;;;8.80;1.00;;;;;;4934663;29;20505;-54
2022/12/27 11:44:12;;;;;;;10.50;2.40;;;8.90;1.00;;;;;;4934778;29;20186;-54
2022/12/27 11:47:01;;;;;;;9.30;1.90;;;8.90;1.00;;;;;;4933952;29;20438;-53
2022/12/27 11:49:35;;;;;;;6.20;2.37;;;8.80;1.00;;;;;;4932556;29;20520;-53
2022/12/27 11:52:09;;;;;;;6.07;2.57;;;9.10;1.00;;;;;;4926030;29;20446;-54
2022/12/27 11:54:53;;;;;;;12.63;2.53;;;9.10;1.00;;;;;;4928268;29;20446;-54
2022/12/27 11:57:29;;;;;;;16.37;3.43;;;9.00;1.00;;;;;;4930056;29;20516;-53
2022/12/27 12:00:23;;;;;;;6.17;2.17;;;8.80;1.00;;;;;;4930514;29;20484;-53
2022/12/27 12:03:04;;;;;;;10.90;2.63;;;8.80;1.00;;;;;;4925199;29;20808;-53
2022/12/27 12:05:44;;;;;;;7.27;2.50;;;8.90;1.00;;;;;;4929603;29;20481;-53
2022/12/27 12:08:19;;;;;;;12.07;2.60;;;9.00;1.00;;;;;;4934556;29;20398;-55
2022/12/27 12:11:17;;;;;;;8.77;2.60;;;8.90;1.00;;;;;;4934438;29;20432;-53
2022/12/27 12:14:10;;;;;;;9.63;2.60;;;9.20;1.00;;;;;;4933604;29;20442;-53
2022/12/27 12:17:13;;;;;;;12.00;2.73;;;9.10;1.00;;;;;;4929243;29;20435;-53
2022/12/27 12:19:50;;;;;;;10.00;3.80;;;9.20;1.00;;;;;;4927303;29;20453;-53
2022/12/27 12:22:22;;;;;;;18.90;2.97;;;9.40;1.00;;;;;;4934386;29;20983;-53
2022/12/27 12:25:18;;;;;;;13.33;2.50;;;9.70;1.00;;;;;;4934720;29;20489;-53
2022/12/27 12:27:59;;;;;;;8.50;2.37;;;10.20;1.00;;;;;;4928795;29;20427;-53
2022/12/27 12:30:52;;;;;;;5.47;2.53;;;10.80;1.00;;;;;;4924984;29;20933;-53
2022/12/27 12:33:45;;;;;;;10.10;3.10;;;10.70;1.00;;;;;;4922815;29;20453;-54
2022/12/27 12:36:38;;;;;;;13.03;3.37;;;10.00;1.00;;;;;;4914822;29;20434;-53
2022/12/27 12:39:31;;;;;;;11.50;2.53;;;9.20;1.00;;;;;;4899361;29;20514;-54
2022/12/27 12:42:36;;;;;;;9.57;2.33;;;8.40;1.00;;;;;;4925933;29;20444;-54
2022/12/27 12:45:19;;;;;;;7.13;2.33;;;8.10;1.00;;;;;;4929261;29;21010;-57
2022/12/27 12:48:04;;;;;;;9.33;3.20;;;8.30;1.00;;;;;;4931706;28;20444;-55
2022/12/27 12:50:39;;;;;;;12.13;2.90;;;8.40;1.00;;;;;;4927966;29;20490;-53
2022/12/27 12:53:32;;;;;;;11.57;3.30;;;8.60;1.00;;;;;;4933677;29;20482;-53
2022/12/27 12:56:17;;;;;;;15.70;3.00;;;9.00;1.00;;;;;;4918682;29;20431;-54
2022/12/27 12:59:06;;;;;;;8.33;2.97;;;9.60;1.00;;;;;;4901380;29;20425;-54
2022/12/27 13:01:52;;;;;;;14.37;2.80;;;9.90;1.00;;;;;;4918157;29;20518;-54
2022/12/27 13:04:36;;;;;;;14.20;2.90;;;10.00;1.00;;;;;;4917556;29;20406;-54
2022/12/27 13:07:18;;;;;;;10.27;2.90;;;9.80;1.00;;;;;;4923863;29;20445;-54
2022/12/27 13:10:09;;;;;;;16.53;3.37;;;9.40;1.00;;;;;;4927529;29;20455;-54
2022/12/27 13:13:04;;;;;;;10.20;2.80;;;8.60;1.00;;;;;;4923031;29;21094;-54
2022/12/27 13:15:37;;;;;;;12.23;2.73;;;8.20;1.00;;;;;;4900146;29;20931;-53
2022/12/27 13:18:30;;;;;;;11.20;3.20;;;7.60;1.00;;;;;;4934537;29;20462;-52
2022/12/27 13:20:55;;;;;;;11.97;2.77;;;7.20;1.00;;;;;;4936329;29;20450;-52
2022/12/27 13:23:36;;;;;;;8.73;2.50;;;7.00;17.50;;;;;;4933594;29;20475;-52
2022/12/27 13:26:07;;;;;;;7.80;2.87;;;6.80;79.00;;;;;;4916608;29;20216;-53
2022/12/27 13:28:58;;;;;;;8.67;2.60;;;6.70;99.90;;;;;;4935709;29;20445;-53
2022/12/27 13:31:27;;;;;;;13.50;3.30;;;6.60;99.90;;;;;;4937417;29;20422;-54
2022/12/27 13:34:14;;;;;;;7.53;2.90;;;6.50;99.90;;;;;;4935715;29;20441;-58
2022/12/27 13:37:20;;;;;;;16.23;2.90;;;6.50;99.90;;;;;;4937373;29;20410;-54
2022/12/27 13:39:51;;;;;;;11.93;3.17;;;6.40;99.90;;;;;;4929286;29;20477;-54
2022/12/27 13:42:53;;;;;;;13.30;2.80;;;6.30;99.90;;;;;;4937325;29;20433;-54
2022/12/27 13:45:56;;;;;;;6.80;3.23;;;6.20;99.90;;;;;;4935005;29;20927;-55
2022/12/27 13:48:31;;;;;;;12.83;3.43;;;6.10;99.90;;;;;;4923321;29;20999;-54
2022/12/27 13:51:30;;;;;;;10.40;3.00;;;6.10;99.90;;;;;;4918352;29;20994;-54
2022/12/27 13:54:20;;;;;;;7.70;3.40;;;6.00;99.90;;;;;;4934212;29;20448;-54
2022/12/27 13:57:04;;;;;;;11.53;2.63;;;5.90;1.00;;;;;;4937167;29;20430;-54
2022/12/27 14:00:07;;;;;;;10.13;3.50;;;5.90;1.00;;;;;;4922270;29;20509;-55
2022/12/27 14:02:36;;;;;;;11.03;3.40;;;5.90;1.00;;;;;;4936994;29;21003;-54
2022/12/27 14:05:02;;;;;;;12.63;3.47;;;5.90;1.00;;;;;;4936312;29;21301;-54
2022/12/27 14:07:51;;;;;;;8.70;3.27;;;5.80;99.90;;;;;;4936876;29;20399;-54
2022/12/27 14:10:35;;;;;;;19.60;3.47;;;5.70;1.00;;;;;;4935006;29;20204;-53
2022/12/27 14:13:04;;;;;;;14.77;3.00;;;5.70;1.00;;;;;;4936365;29;20466;-55
2022/12/27 14:16:05;;;;;;;6.97;3.20;;;5.70;1.00;;;;;;4936177;29;20458;-53
2022/12/27 14:19:08;;;;;;;10.20;3.07;;;5.70;99.90;;;;;;4935481;29;20470;-57
2022/12/27 14:21:46;;;;;;;8.80;3.00;;;5.60;99.90;;;;;;4931495;29;20482;-54
2022/12/27 14:24:45;;;;;;;9.23;3.30;;;5.60;99.90;;;;;;4934705;29;20534;-55
2022/12/27 14:27:45;;;;;;;5.90;2.50;;;5.60;99.90;;;;;;4936328;29;21000;-54
2022/12/27 14:30:13;;;;;;;11.80;2.90;;;5.50;99.90;;;;;;4929625;29;20520;-55
2022/12/27 14:33:17;;;;;;;16.60;3.03;;;5.50;99.90;;;;;;4936084;29;20468;-54
2022/12/27 14:35:48;;;;;;;6.33;2.60;;;5.40;99.90;;;;;;4936061;29;20909;-54
2022/12/27 14:38:39;;;;;;;10.73;3.20;;;5.40;99.90;;;;;;4935785;29;20789;-53
2022/12/27 14:41:29;;;;;;;15.93;3.83;;;5.40;99.90;;;;;;4926800;29;20478;-54
2022/12/27 14:44:32;;;;;;;15.43;3.60;;;5.30;99.90;;;;;;4932081;29;20537;-54
2022/12/27 14:47:04;;;;;;;11.67;3.57;;;5.20;99.90;;;;;;4930711;29;20470;-53
2022/12/27 14:49:57;;;;;;;14.00;3.60;;;5.10;99.90;;;;;;4931437;29;20491;-54
2022/12/27 14:53:00;;;;;;;12.17;3.23;;;5.20;99.90;;;;;;4926636;29;20491;-54
2022/12/27 14:55:44;;;;;;;11.07;3.27;;;5.10;99.90;;;;;;4930062;29;20557;-53
2022/12/27 14:58:27;;;;;;;12.20;3.40;;;5.10;99.90;;;;;;4935210;29;20932;-59
2022/12/27 15:01:03;;;;;;;15.67;3.90;;;5.10;99.90;;;;;;4934755;29;20659;-57
2022/12/27 15:04:13;;;;;;;11.07;3.87;;;5.00;99.90;;;;;;4928606;29;20510;-53
2022/12/27 15:06:57;;;;;;;12.13;3.53;;;5.00;99.90;;;;;;4875708;29;21024;-54
2022/12/27 15:09:36;;;;;;;13.10;3.50;;;5.00;99.90;;;;;;4933221;29;20568;-54
2022/12/27 15:12:11;;;;;;;13.40;4.20;;;5.00;99.90;;;;;;4932380;29;20897;-53